sensor_id;sensor_type;location;lat;lon;timestamp;noise_LAeq;noise_LA_min;noise_LA_max;noise_LA01;noise_LA95
72686;Laerm;61365;52.162;4.500;2023-03-14T00:01:24;45.63;37.66;57.14;;
72686;Laerm;61365;52.162;4.500;2023-03-14T00:03:51;45.60;37.16;59.30;;
72686;Laerm;61365;52.162;4.500;2023-03-14T00:06:18;45.69;37.55;57.54;;
72686;Laerm;61365;52.162;4.500;2023-03-14T00:08:45;45.83;38.19;57.51;;
72686;Laerm;61365;52.162;4.500;2023-03-14T00:11:15;45.72;37.32;59.31;;
72686;Laerm;61365;52.162;4.500;2023-03-14T00:13:42;45.61;37.23;58.16;;
72686;Laerm;61365;52.162;4.500;2023-03-14T00:16:12;45.88;37.74;62.39;;
72686;Laerm;61365;52.162;4.500;2023-03-14T00:18:39;45.77;36.46;57.61;;
72686;Laerm;61365;52.162;4.500;2023-03-14T00:21:08;47.04;35.63;57.29;;
72686;Laerm;61365;52.162;4.500;2023-03-14T00:23:38;47.16;35.64;57.04;;
72686;Laerm;61365;52.162;4.500;2023-03-14T00:26:19;47.02;36.00;57.08;;
72686;Laerm;61365;52.162;4.500;2023-03-14T00:28:51;47.20;36.30;56.89;;
72686;Laerm;61365;52.162;4.500;2023-03-14T00:31:18;47.11;36.44;56.77;;
72686;Laerm;61365;52.162;4.500;2023-03-14T00:33:45;47.00;35.86;56.84;;
72686;Laerm;61365;52.162;4.500;2023-03-14T00:36:16;47.12;35.70;57.06;;
72686;Laerm;61365;52.162;4.500;2023-03-14T00:38:46;47.10;35.74;57.39;;
72686;Laerm;61365;52.162;4.500;2023-03-14T00:41:16;47.17;34.87;60.13;;
72686;Laerm;61365;52.162;4.500;2023-03-14T00:43:44;47.12;36.07;56.79;;
72686;Laerm;61365;52.162;4.500;2023-03-14T00:46:12;47.00;35.88;55.89;;
72686;Laerm;61365;52.162;4.500;2023-03-14T00:48:39;47.09;36.60;56.41;;
72686;Laerm;61365;52.162;4.500;2023-03-14T00:51:08;47.07;36.54;57.42;;
72686;Laerm;61365;52.162;4.500;2023-03-14T00:53:39;47.08;36.46;58.03;;
72686;Laerm;61365;52.162;4.500;2023-03-14T00:56:11;47.07;35.57;56.70;;
72686;Laerm;61365;52.162;4.500;2023-03-14T00:58:39;46.96;36.14;60.37;;
72686;Laerm;61365;52.162;4.500;2023-03-14T01:01:12;47.29;36.67;56.75;;
72686;Laerm;61365;52.162;4.500;2023-03-14T01:03:39;50.44;33.54;64.81;;
72686;Laerm;61365;52.162;4.500;2023-03-14T01:06:15;48.21;34.07;62.26;;
72686;Laerm;61365;52.162;4.500;2023-03-14T01:08:43;47.25;35.50;56.83;;
72686;Laerm;61365;52.162;4.500;2023-03-14T01:11:18;47.07;36.32;57.04;;
72686;Laerm;61365;52.162;4.500;2023-03-14T01:13:46;47.11;35.26;58.15;;
72686;Laerm;61365;52.162;4.500;2023-03-14T01:16:13;47.07;36.06;56.86;;
72686;Laerm;61365;52.162;4.500;2023-03-14T01:18:42;47.25;35.64;58.27;;
72686;Laerm;61365;52.162;4.500;2023-03-14T01:21:17;47.24;35.98;57.03;;
72686;Laerm;61365;52.162;4.500;2023-03-14T01:23:45;47.20;35.17;56.33;;
72686;Laerm;61365;52.162;4.500;2023-03-14T01:26:15;47.02;36.20;57.01;;
72686;Laerm;61365;52.162;4.500;2023-03-14T01:28:42;47.15;36.34;57.94;;
72686;Laerm;61365;52.162;4.500;2023-03-14T01:31:10;47.09;36.73;58.56;;
72686;Laerm;61365;52.162;4.500;2023-03-14T01:33:38;47.21;36.10;56.87;;
72686;Laerm;61365;52.162;4.500;2023-03-14T01:36:06;47.27;36.03;57.83;;
72686;Laerm;61365;52.162;4.500;2023-03-14T01:38:34;47.13;35.94;56.47;;
72686;Laerm;61365;52.162;4.500;2023-03-14T01:41:01;47.05;36.54;58.63;;
72686;Laerm;61365;52.162;4.500;2023-03-14T01:43:29;46.98;35.35;56.55;;
72686;Laerm;61365;52.162;4.500;2023-03-14T01:48:47;46.86;35.97;57.59;;
72686;Laerm;61365;52.162;4.500;2023-03-14T01:51:25;45.67;37.23;57.42;;
72686;Laerm;61365;52.162;4.500;2023-03-14T01:54:01;45.58;37.26;58.98;;
72686;Laerm;61365;52.162;4.500;2023-03-14T01:56:30;45.61;37.12;58.68;;
72686;Laerm;61365;52.162;4.500;2023-03-14T01:58:58;45.60;37.43;57.80;;
72686;Laerm;61365;52.162;4.500;2023-03-14T02:01:26;45.57;37.32;56.83;;
72686;Laerm;61365;52.162;4.500;2023-03-14T02:04:01;45.68;37.20;56.91;;
72686;Laerm;61365;52.162;4.500;2023-03-14T02:07:05;45.73;37.81;57.62;;
72686;Laerm;61365;52.162;4.500;2023-03-14T02:09:36;45.63;37.09;58.93;;
72686;Laerm;61365;52.162;4.500;2023-03-14T02:12:05;45.64;37.24;57.70;;
72686;Laerm;61365;52.162;4.500;2023-03-14T02:14:35;46.87;35.83;57.56;;
72686;Laerm;61365;52.162;4.500;2023-03-14T02:17:04;47.25;35.82;57.44;;
72686;Laerm;61365;52.162;4.500;2023-03-14T02:22:40;47.07;35.88;57.33;;
72686;Laerm;61365;52.162;4.500;2023-03-14T02:25:40;47.05;35.93;57.43;;
72686;Laerm;61365;52.162;4.500;2023-03-14T02:28:10;47.05;36.23;57.35;;
72686;Laerm;61365;52.162;4.500;2023-03-14T02:30:37;47.06;35.33;57.66;;
72686;Laerm;61365;52.162;4.500;2023-03-14T02:33:13;47.13;35.92;56.73;;
72686;Laerm;61365;52.162;4.500;2023-03-14T02:35:47;47.21;36.44;57.25;;
72686;Laerm;61365;52.162;4.500;2023-03-14T02:38:24;47.26;36.00;57.53;;
72686;Laerm;61365;52.162;4.500;2023-03-14T02:40:53;47.12;35.86;56.91;;
72686;Laerm;61365;52.162;4.500;2023-03-14T02:43:20;47.21;35.57;56.62;;
72686;Laerm;61365;52.162;4.500;2023-03-14T02:45:49;47.01;36.49;60.85;;
72686;Laerm;61365;52.162;4.500;2023-03-14T02:48:21;47.13;36.55;57.50;;
72686;Laerm;61365;52.162;4.500;2023-03-14T02:50:51;46.06;36.85;61.53;;
72686;Laerm;61365;52.162;4.500;2023-03-14T02:53:25;45.70;37.01;57.91;;
72686;Laerm;61365;52.162;4.500;2023-03-14T02:55:52;45.98;38.01;58.56;;
72686;Laerm;61365;52.162;4.500;2023-03-14T02:58:20;45.72;37.83;59.49;;
72686;Laerm;61365;52.162;4.500;2023-03-14T03:00:47;45.79;37.71;57.70;;
72686;Laerm;61365;52.162;4.500;2023-03-14T03:03:13;45.73;36.43;58.17;;
72686;Laerm;61365;52.162;4.500;2023-03-14T03:05:40;45.70;37.72;58.17;;
72686;Laerm;61365;52.162;4.500;2023-03-14T03:08:08;45.84;37.15;58.11;;
72686;Laerm;61365;52.162;4.500;2023-03-14T03:10:35;45.71;37.61;57.67;;
72686;Laerm;61365;52.162;4.500;2023-03-14T03:13:01;45.68;37.70;57.64;;
72686;Laerm;61365;52.162;4.500;2023-03-14T03:15:37;45.84;35.65;57.47;;
72686;Laerm;61365;52.162;4.500;2023-03-14T03:18:04;47.15;35.95;56.47;;
72686;Laerm;61365;52.162;4.500;2023-03-14T03:20:30;47.20;36.04;58.52;;
72686;Laerm;61365;52.162;4.500;2023-03-14T03:22:59;46.82;36.04;58.43;;
72686;Laerm;61365;52.162;4.500;2023-03-14T03:25:26;46.96;36.46;57.30;;
72686;Laerm;61365;52.162;4.500;2023-03-14T03:27:53;47.04;36.62;57.33;;
72686;Laerm;61365;52.162;4.500;2023-03-14T03:30:20;47.09;36.38;60.05;;
72686;Laerm;61365;52.162;4.500;2023-03-14T03:32:47;46.98;36.36;58.77;;
72686;Laerm;61365;52.162;4.500;2023-03-14T03:35:13;47.12;36.57;56.48;;
72686;Laerm;61365;52.162;4.500;2023-03-14T03:37:40;47.14;35.39;56.71;;
72686;Laerm;61365;52.162;4.500;2023-03-14T03:40:08;47.27;35.68;56.99;;
72686;Laerm;61365;52.162;4.500;2023-03-14T03:42:35;47.02;35.19;56.76;;
72686;Laerm;61365;52.162;4.500;2023-03-14T03:45:03;47.17;35.93;59.86;;
72686;Laerm;61365;52.162;4.500;2023-03-14T03:47:31;46.96;36.05;57.62;;
72686;Laerm;61365;52.162;4.500;2023-03-14T03:49:57;47.10;35.88;58.09;;
72686;Laerm;61365;52.162;4.500;2023-03-14T03:52:24;47.14;36.22;56.87;;
72686;Laerm;61365;52.162;4.500;2023-03-14T03:54:50;47.08;35.21;56.97;;
72686;Laerm;61365;52.162;4.500;2023-03-14T03:57:17;47.33;36.26;57.54;;
72686;Laerm;61365;52.162;4.500;2023-03-14T03:59:43;47.13;36.43;57.31;;
72686;Laerm;61365;52.162;4.500;2023-03-14T04:02:09;47.23;35.17;58.30;;
72686;Laerm;61365;52.162;4.500;2023-03-14T04:04:36;47.16;35.94;57.89;;
72686;Laerm;61365;52.162;4.500;2023-03-14T04:07:04;47.07;36.11;58.29;;
72686;Laerm;61365;52.162;4.500;2023-03-14T04:09:30;47.09;35.97;57.10;;
72686;Laerm;61365;52.162;4.500;2023-03-14T04:11:57;46.75;34.26;63.31;;
72686;Laerm;61365;52.162;4.500;2023-03-14T04:14:24;45.77;37.38;58.23;;
72686;Laerm;61365;52.162;4.500;2023-03-14T04:16:50;45.83;36.95;58.38;;
72686;Laerm;61365;52.162;4.500;2023-03-14T04:19:16;45.62;36.71;58.28;;
72686;Laerm;61365;52.162;4.500;2023-03-14T04:21:43;45.61;37.61;57.88;;
72686;Laerm;61365;52.162;4.500;2023-03-14T04:24:14;45.86;36.69;57.59;;
72686;Laerm;61365;52.162;4.500;2023-03-14T04:26:41;47.25;35.78;61.74;;
72686;Laerm;61365;52.162;4.500;2023-03-14T04:29:07;47.12;36.40;57.89;;
72686;Laerm;61365;52.162;4.500;2023-03-14T04:31:33;47.44;35.36;62.11;;
72686;Laerm;61365;52.162;4.500;2023-03-14T04:34:00;47.22;36.25;57.91;;
72686;Laerm;61365;52.162;4.500;2023-03-14T04:36:26;47.20;36.22;57.52;;
72686;Laerm;61365;52.162;4.500;2023-03-14T04:38:52;47.02;34.94;58.11;;
72686;Laerm;61365;52.162;4.500;2023-03-14T04:41:19;47.19;35.72;57.25;;
72686;Laerm;61365;52.162;4.500;2023-03-14T04:43:45;47.19;35.99;57.50;;
72686;Laerm;61365;52.162;4.500;2023-03-14T04:46:11;47.16;36.57;58.52;;
72686;Laerm;61365;52.162;4.500;2023-03-14T04:48:38;46.19;35.87;57.47;;
72686;Laerm;61365;52.162;4.500;2023-03-14T04:51:04;45.60;36.97;57.63;;
72686;Laerm;61365;52.162;4.500;2023-03-14T04:53:31;45.94;36.10;58.14;;
72686;Laerm;61365;52.162;4.500;2023-03-14T04:55:57;47.19;34.86;58.58;;
72686;Laerm;61365;52.162;4.500;2023-03-14T04:58:24;47.24;35.57;58.25;;
72686;Laerm;61365;52.162;4.500;2023-03-14T05:00:51;47.12;35.83;57.46;;
72686;Laerm;61365;52.162;4.500;2023-03-14T05:03:18;46.91;35.63;56.42;;
72686;Laerm;61365;52.162;4.500;2023-03-14T05:05:45;47.09;35.97;57.73;;
72686;Laerm;61365;52.162;4.500;2023-03-14T05:08:12;47.06;35.70;56.84;;
72686;Laerm;61365;52.162;4.500;2023-03-14T05:10:39;47.32;35.55;57.99;;
72686;Laerm;61365;52.162;4.500;2023-03-14T05:13:05;47.12;35.61;60.42;;
72686;Laerm;61365;52.162;4.500;2023-03-14T05:15:31;47.19;36.28;57.51;;
72686;Laerm;61365;52.162;4.500;2023-03-14T05:17:58;47.32;36.74;57.52;;
72686;Laerm;61365;52.162;4.500;2023-03-14T05:20:24;47.19;35.39;57.27;;
72686;Laerm;61365;52.162;4.500;2023-03-14T05:22:50;46.21;34.62;57.64;;
72686;Laerm;61365;52.162;4.500;2023-03-14T05:25:17;45.61;36.54;57.71;;
72686;Laerm;61365;52.162;4.500;2023-03-14T05:27:43;45.88;36.61;58.54;;
72686;Laerm;61365;52.162;4.500;2023-03-14T05:30:10;45.65;36.97;58.44;;
72686;Laerm;61365;52.162;4.500;2023-03-14T05:32:37;45.65;36.76;59.32;;
72686;Laerm;61365;52.162;4.500;2023-03-14T05:35:04;45.76;37.24;57.46;;
72686;Laerm;61365;52.162;4.500;2023-03-14T05:37:30;45.75;36.68;59.48;;
72686;Laerm;61365;52.162;4.500;2023-03-14T05:39:56;46.39;36.12;58.47;;
72686;Laerm;61365;52.162;4.500;2023-03-14T05:42:23;47.37;36.32;57.67;;
72686;Laerm;61365;52.162;4.500;2023-03-14T05:44:49;47.13;35.75;59.11;;
72686;Laerm;61365;52.162;4.500;2023-03-14T05:47:16;47.33;35.51;58.26;;
72686;Laerm;61365;52.162;4.500;2023-03-14T05:49:42;47.38;35.56;58.77;;
72686;Laerm;61365;52.162;4.500;2023-03-14T05:52:08;47.28;35.83;58.88;;
72686;Laerm;61365;52.162;4.500;2023-03-14T05:54:35;47.30;35.91;57.83;;
72686;Laerm;61365;52.162;4.500;2023-03-14T05:57:01;47.21;36.30;58.76;;
72686;Laerm;61365;52.162;4.500;2023-03-14T05:59:27;45.76;36.61;58.43;;
72686;Laerm;61365;52.162;4.500;2023-03-14T06:01:54;45.70;36.92;58.57;;
72686;Laerm;61365;52.162;4.500;2023-03-14T06:04:20;45.73;36.49;58.23;;
72686;Laerm;61365;52.162;4.500;2023-03-14T06:06:46;45.80;37.46;57.88;;
72686;Laerm;61365;52.162;4.500;2023-03-14T06:09:13;45.56;36.66;58.67;;
72686;Laerm;61365;52.162;4.500;2023-03-14T06:11:39;45.86;37.05;59.11;;
72686;Laerm;61365;52.162;4.500;2023-03-14T06:14:06;45.62;36.92;58.40;;
72686;Laerm;61365;52.162;4.500;2023-03-14T06:16:32;45.78;36.92;58.80;;
72686;Laerm;61365;52.162;4.500;2023-03-14T06:18:59;45.64;36.52;59.07;;
72686;Laerm;61365;52.162;4.500;2023-03-14T06:21:25;45.78;37.09;58.09;;
72686;Laerm;61365;52.162;4.500;2023-03-14T06:23:52;45.75;37.01;58.76;;
72686;Laerm;61365;52.162;4.500;2023-03-14T06:26:18;45.87;36.74;58.77;;
72686;Laerm;61365;52.162;4.500;2023-03-14T06:28:44;45.80;38.21;58.10;;
72686;Laerm;61365;52.162;4.500;2023-03-14T06:31:11;45.81;36.58;59.03;;
72686;Laerm;61365;52.162;4.500;2023-03-14T06:33:37;45.68;37.07;57.91;;
72686;Laerm;61365;52.162;4.500;2023-03-14T06:36:04;45.85;36.86;57.85;;
72686;Laerm;61365;52.162;4.500;2023-03-14T06:38:31;45.75;37.11;58.80;;
72686;Laerm;61365;52.162;4.500;2023-03-14T06:41:04;45.74;36.72;59.21;;
72686;Laerm;61365;52.162;4.500;2023-03-14T06:43:31;45.82;36.52;58.43;;
72686;Laerm;61365;52.162;4.500;2023-03-14T06:45:57;45.74;37.29;57.83;;
72686;Laerm;61365;52.162;4.500;2023-03-14T06:48:23;45.83;37.66;57.79;;
72686;Laerm;61365;52.162;4.500;2023-03-14T06:50:50;45.70;37.09;58.41;;
72686;Laerm;61365;52.162;4.500;2023-03-14T06:53:16;45.99;36.10;59.75;;
72686;Laerm;61365;52.162;4.500;2023-03-14T06:55:43;45.70;37.52;58.17;;
72686;Laerm;61365;52.162;4.500;2023-03-14T06:58:09;45.94;37.38;58.71;;
72686;Laerm;61365;52.162;4.500;2023-03-14T07:00:36;45.88;36.68;58.13;;
72686;Laerm;61365;52.162;4.500;2023-03-14T07:03:02;45.86;37.06;59.99;;
72686;Laerm;61365;52.162;4.500;2023-03-14T07:05:31;45.55;37.28;58.02;;
72686;Laerm;61365;52.162;4.500;2023-03-14T07:07:58;45.67;36.98;57.58;;
72686;Laerm;61365;52.162;4.500;2023-03-14T07:10:24;45.87;36.85;57.79;;
72686;Laerm;61365;52.162;4.500;2023-03-14T07:12:51;45.91;37.10;59.41;;
72686;Laerm;61365;52.162;4.500;2023-03-14T07:15:18;45.94;36.10;57.95;;
72686;Laerm;61365;52.162;4.500;2023-03-14T07:17:45;46.33;35.77;58.15;;
72686;Laerm;61365;52.162;4.500;2023-03-14T07:20:14;46.06;35.83;58.94;;
72686;Laerm;61365;52.162;4.500;2023-03-14T07:22:47;45.82;37.26;57.70;;
72686;Laerm;61365;52.162;4.500;2023-03-14T07:25:14;45.74;36.71;59.26;;
72686;Laerm;61365;52.162;4.500;2023-03-14T07:27:44;46.43;36.67;58.96;;
72686;Laerm;61365;52.162;4.500;2023-03-14T07:30:11;47.22;35.86;57.80;;
72686;Laerm;61365;52.162;4.500;2023-03-14T07:32:38;47.28;36.60;58.10;;
72686;Laerm;61365;52.162;4.500;2023-03-14T07:35:05;47.12;36.18;58.82;;
72686;Laerm;61365;52.162;4.500;2023-03-14T07:37:32;47.16;36.10;59.34;;
72686;Laerm;61365;52.162;4.500;2023-03-14T07:39:58;47.19;35.00;58.19;;
72686;Laerm;61365;52.162;4.500;2023-03-14T07:42:24;47.20;36.18;59.23;;
72686;Laerm;61365;52.162;4.500;2023-03-14T07:44:51;47.22;33.54;62.69;;
72686;Laerm;61365;52.162;4.500;2023-03-14T07:47:17;47.13;36.32;57.35;;
72686;Laerm;61365;52.162;4.500;2023-03-14T07:49:43;47.09;35.64;59.84;;
72686;Laerm;61365;52.162;4.500;2023-03-14T07:52:10;47.30;36.20;58.88;;
72686;Laerm;61365;52.162;4.500;2023-03-14T07:54:36;47.34;35.49;58.27;;
72686;Laerm;61365;52.162;4.500;2023-03-14T07:57:02;47.13;36.11;58.41;;
72686;Laerm;61365;52.162;4.500;2023-03-14T07:59:29;47.29;33.19;63.85;;
72686;Laerm;61365;52.162;4.500;2023-03-14T08:01:56;47.06;36.16;59.39;;
72686;Laerm;61365;52.162;4.500;2023-03-14T08:04:22;47.36;35.13;57.79;;
72686;Laerm;61365;52.162;4.500;2023-03-14T08:06:48;47.32;35.67;57.50;;
72686;Laerm;61365;52.162;4.500;2023-03-14T08:09:15;47.26;35.50;58.21;;
72686;Laerm;61365;52.162;4.500;2023-03-14T08:11:41;47.25;36.36;57.63;;
72686;Laerm;61365;52.162;4.500;2023-03-14T08:14:08;47.31;36.64;60.40;;
72686;Laerm;61365;52.162;4.500;2023-03-14T08:16:35;47.46;36.66;58.55;;
72686;Laerm;61365;52.162;4.500;2023-03-14T08:19:01;47.33;36.28;59.19;;
72686;Laerm;61365;52.162;4.500;2023-03-14T08:21:28;47.29;36.41;59.12;;
72686;Laerm;61365;52.162;4.500;2023-03-14T08:23:54;47.11;36.27;58.33;;
72686;Laerm;61365;52.162;4.500;2023-03-14T08:26:20;47.24;34.15;58.64;;
72686;Laerm;61365;52.162;4.500;2023-03-14T08:28:47;47.19;35.56;57.84;;
72686;Laerm;61365;52.162;4.500;2023-03-14T08:31:16;47.27;37.53;59.10;;
72686;Laerm;61365;52.162;4.500;2023-03-14T08:33:43;47.22;36.89;57.62;;
72686;Laerm;61365;52.162;4.500;2023-03-14T08:36:10;47.27;37.46;58.76;;
72686;Laerm;61365;52.162;4.500;2023-03-14T08:38:36;47.20;35.92;59.63;;
72686;Laerm;61365;52.162;4.500;2023-03-14T08:41:03;47.03;35.83;58.54;;
72686;Laerm;61365;52.162;4.500;2023-03-14T08:43:30;47.13;36.51;56.84;;
72686;Laerm;61365;52.162;4.500;2023-03-14T08:46:01;47.34;36.61;58.22;;
72686;Laerm;61365;52.162;4.500;2023-03-14T08:48:29;47.20;36.25;57.65;;
72686;Laerm;61365;52.162;4.500;2023-03-14T08:51:04;47.30;36.16;57.66;;
72686;Laerm;61365;52.162;4.500;2023-03-14T08:53:31;47.41;36.88;58.78;;
72686;Laerm;61365;52.162;4.500;2023-03-14T08:55:57;47.34;36.28;58.60;;
72686;Laerm;61365;52.162;4.500;2023-03-14T08:58:24;47.24;36.40;57.47;;
72686;Laerm;61365;52.162;4.500;2023-03-14T09:00:50;47.51;36.72;58.43;;
72686;Laerm;61365;52.162;4.500;2023-03-14T09:03:17;47.25;36.69;58.37;;
72686;Laerm;61365;52.162;4.500;2023-03-14T09:05:43;47.37;35.42;62.77;;
72686;Laerm;61365;52.162;4.500;2023-03-14T09:08:09;47.20;36.70;57.11;;
72686;Laerm;61365;52.162;4.500;2023-03-14T09:10:36;47.27;36.94;58.64;;
72686;Laerm;61365;52.162;4.500;2023-03-14T09:13:04;47.35;36.91;56.92;;
72686;Laerm;61365;52.162;4.500;2023-03-14T09:15:31;47.60;36.57;58.20;;
72686;Laerm;61365;52.162;4.500;2023-03-14T09:17:58;47.27;36.23;58.09;;
72686;Laerm;61365;52.162;4.500;2023-03-14T09:20:25;46.55;36.29;60.05;;
72686;Laerm;61365;52.162;4.500;2023-03-14T09:22:51;45.97;38.13;58.32;;
72686;Laerm;61365;52.162;4.500;2023-03-14T09:25:17;45.83;38.59;58.24;;
72686;Laerm;61365;52.162;4.500;2023-03-14T09:27:44;46.15;38.08;60.09;;
72686;Laerm;61365;52.162;4.500;2023-03-14T09:30:11;46.39;36.66;59.08;;
72686;Laerm;61365;52.162;4.500;2023-03-14T09:32:37;47.22;36.80;58.59;;
72686;Laerm;61365;52.162;4.500;2023-03-14T09:35:04;47.34;36.20;57.62;;
72686;Laerm;61365;52.162;4.500;2023-03-14T09:37:30;47.32;36.69;57.93;;
72686;Laerm;61365;52.162;4.500;2023-03-14T09:39:57;47.21;36.10;57.87;;
72686;Laerm;61365;52.162;4.500;2023-03-14T09:42:27;47.28;35.88;57.50;;
72686;Laerm;61365;52.162;4.500;2023-03-14T09:44:59;47.27;36.79;58.64;;
72686;Laerm;61365;52.162;4.500;2023-03-14T09:47:28;47.32;36.07;58.62;;
72686;Laerm;61365;52.162;4.500;2023-03-14T09:49:54;46.55;36.51;58.14;;
72686;Laerm;61365;52.162;4.500;2023-03-14T09:52:31;46.07;37.66;59.48;;
72686;Laerm;61365;52.162;4.500;2023-03-14T09:55:05;46.07;37.99;58.67;;
72686;Laerm;61365;52.162;4.500;2023-03-14T09:57:35;46.00;37.53;58.31;;
72686;Laerm;61365;52.162;4.500;2023-03-14T10:00:18;46.10;37.82;58.67;;
72686;Laerm;61365;52.162;4.500;2023-03-14T10:05:42;46.28;38.61;59.59;;
72686;Laerm;61365;52.162;4.500;2023-03-14T10:08:13;46.20;38.45;61.06;;
72686;Laerm;61365;52.162;4.500;2023-03-14T10:10:40;46.06;37.94;58.04;;
72686;Laerm;61365;52.162;4.500;2023-03-14T10:13:18;46.09;37.13;57.61;;
72686;Laerm;61365;52.162;4.500;2023-03-14T10:15:54;46.47;38.25;59.01;;
72686;Laerm;61365;52.162;4.500;2023-03-14T10:18:23;46.13;37.37;58.80;;
72686;Laerm;61365;52.162;4.500;2023-03-14T10:21:05;46.19;38.26;58.42;;
72686;Laerm;61365;52.162;4.500;2023-03-14T10:23:33;46.20;38.09;58.00;;
72686;Laerm;61365;52.162;4.500;2023-03-14T10:26:15;46.20;37.70;63.82;;
72686;Laerm;61365;52.162;4.500;2023-03-14T10:28:52;46.31;37.98;60.66;;
72686;Laerm;61365;52.162;4.500;2023-03-14T10:31:24;46.12;37.03;59.59;;
72686;Laerm;61365;52.162;4.500;2023-03-14T10:34:00;46.26;37.41;58.08;;
72686;Laerm;61365;52.162;4.500;2023-03-14T10:36:29;46.28;38.31;59.26;;
72686;Laerm;61365;52.162;4.500;2023-03-14T10:41:48;46.15;38.07;60.75;;
72686;Laerm;61365;52.162;4.500;2023-03-14T10:44:22;46.20;37.20;58.05;;
72686;Laerm;61365;52.162;4.500;2023-03-14T10:47:04;46.28;37.48;60.53;;
72686;Laerm;61365;52.162;4.500;2023-03-14T10:49:35;46.28;34.46;63.33;;
72686;Laerm;61365;52.162;4.500;2023-03-14T10:52:28;46.38;38.02;58.73;;
72686;Laerm;61365;52.162;4.500;2023-03-14T10:55:02;46.40;37.88;58.15;;
72686;Laerm;61365;52.162;4.500;2023-03-14T10:57:29;47.06;36.84;58.24;;
72686;Laerm;61365;52.162;4.500;2023-03-14T10:59:56;47.30;36.46;57.02;;
72686;Laerm;61365;52.162;4.500;2023-03-14T11:03:06;47.28;37.25;57.44;;
72686;Laerm;61365;52.162;4.500;2023-03-14T11:05:49;47.29;36.57;60.09;;
72686;Laerm;61365;52.162;4.500;2023-03-14T11:08:25;47.40;37.24;57.39;;
72686;Laerm;61365;52.162;4.500;2023-03-14T11:11:16;47.25;36.71;57.38;;
72686;Laerm;61365;52.162;4.500;2023-03-14T11:14:14;47.40;36.92;57.82;;
72686;Laerm;61365;52.162;4.500;2023-03-14T11:17:30;47.32;36.86;57.50;;
72686;Laerm;61365;52.162;4.500;2023-03-14T11:20:22;47.28;36.20;57.07;;
72686;Laerm;61365;52.162;4.500;2023-03-14T11:23:04;47.31;37.16;57.05;;
72686;Laerm;61365;52.162;4.500;2023-03-14T11:26:20;47.46;36.93;58.21;;
72686;Laerm;61365;52.162;4.500;2023-03-14T11:29:08;47.36;36.38;57.85;;
72686;Laerm;61365;52.162;4.500;2023-03-14T11:31:41;47.31;36.71;57.76;;
72686;Laerm;61365;52.162;4.500;2023-03-14T11:34:12;47.38;36.54;57.37;;
72686;Laerm;61365;52.162;4.500;2023-03-14T11:36:53;47.24;36.79;57.49;;
72686;Laerm;61365;52.162;4.500;2023-03-14T11:39:26;47.53;36.77;57.84;;
72686;Laerm;61365;52.162;4.500;2023-03-14T11:41:58;47.33;37.06;61.51;;
72686;Laerm;61365;52.162;4.500;2023-03-14T11:44:32;47.35;36.59;56.66;;
72686;Laerm;61365;52.162;4.500;2023-03-14T11:50:09;47.41;36.64;57.58;;
72686;Laerm;61365;52.162;4.500;2023-03-14T11:52:55;47.40;36.53;59.49;;
72686;Laerm;61365;52.162;4.500;2023-03-14T11:55:31;47.33;36.69;56.36;;
72686;Laerm;61365;52.162;4.500;2023-03-14T11:58:09;47.33;36.62;56.84;;
72686;Laerm;61365;52.162;4.500;2023-03-14T12:00:38;47.50;36.34;57.41;;
72686;Laerm;61365;52.162;4.500;2023-03-14T12:06:20;47.44;36.91;57.62;;
72686;Laerm;61365;52.162;4.500;2023-03-14T12:08:58;47.49;36.87;58.50;;
72686;Laerm;61365;52.162;4.500;2023-03-14T12:12:13;47.17;36.70;56.58;;
72686;Laerm;61365;52.162;4.500;2023-03-14T12:15:00;47.25;37.02;60.33;;
72686;Laerm;61365;52.162;4.500;2023-03-14T12:17:40;47.13;37.53;57.60;;
72686;Laerm;61365;52.162;4.500;2023-03-14T12:20:20;47.16;35.89;57.48;;
72686;Laerm;61365;52.162;4.500;2023-03-14T12:22:53;47.24;36.91;57.53;;
72686;Laerm;61365;52.162;4.500;2023-03-14T12:25:22;47.35;36.83;57.01;;
72686;Laerm;61365;52.162;4.500;2023-03-14T12:30:34;47.39;36.25;60.87;;
72686;Laerm;61365;52.162;4.500;2023-03-14T12:35:51;47.29;36.90;56.82;;
72686;Laerm;61365;52.162;4.500;2023-03-14T12:39:00;47.42;36.47;57.46;;
72686;Laerm;61365;52.162;4.500;2023-03-14T12:41:48;47.28;36.87;59.63;;
72686;Laerm;61365;52.162;4.500;2023-03-14T12:49:54;47.21;35.96;60.95;;
72686;Laerm;61365;52.162;4.500;2023-03-14T12:52:38;47.25;36.45;60.59;;
72686;Laerm;61365;52.162;4.500;2023-03-14T12:55:21;47.28;36.72;56.21;;
72686;Laerm;61365;52.162;4.500;2023-03-14T12:58:08;47.25;34.22;62.68;;
72686;Laerm;61365;52.162;4.500;2023-03-14T13:00:40;47.31;37.12;57.37;;
72686;Laerm;61365;52.162;4.500;2023-03-14T13:03:20;47.27;36.55;57.45;;
72686;Laerm;61365;52.162;4.500;2023-03-14T13:08:43;47.32;36.16;58.23;;
72686;Laerm;61365;52.162;4.500;2023-03-14T13:11:18;47.20;36.51;56.36;;
72686;Laerm;61365;52.162;4.500;2023-03-14T13:13:56;47.40;36.05;60.91;;
72686;Laerm;61365;52.162;4.500;2023-03-14T13:16:23;47.32;36.16;60.55;;
72686;Laerm;61365;52.162;4.500;2023-03-14T13:19:27;47.37;36.57;57.31;;
72686;Laerm;61365;52.162;4.500;2023-03-14T13:22:23;47.53;36.40;57.21;;
72686;Laerm;61365;52.162;4.500;2023-03-14T13:25:00;47.34;37.19;59.14;;
72686;Laerm;61365;52.162;4.500;2023-03-14T13:27:26;47.33;36.61;56.81;;
72686;Laerm;61365;52.162;4.500;2023-03-14T13:29:55;47.17;36.19;56.97;;
72686;Laerm;61365;52.162;4.500;2023-03-14T13:32:28;47.22;36.48;60.68;;
72686;Laerm;61365;52.162;4.500;2023-03-14T13:34:57;47.16;37.43;60.56;;
72686;Laerm;61365;52.162;4.500;2023-03-14T13:37:26;46.28;37.13;58.26;;
72686;Laerm;61365;52.162;4.500;2023-03-14T13:39:55;47.11;37.08;57.40;;
72686;Laerm;61365;52.162;4.500;2023-03-14T13:42:26;47.00;36.93;57.73;;
72686;Laerm;61365;52.162;4.500;2023-03-14T13:44:58;46.96;37.01;58.93;;
72686;Laerm;61365;52.162;4.500;2023-03-14T13:47:26;47.20;36.46;61.26;;
72686;Laerm;61365;52.162;4.500;2023-03-14T13:49:53;47.28;36.87;57.66;;
72686;Laerm;61365;52.162;4.500;2023-03-14T13:52:29;47.20;37.10;59.95;;
72686;Laerm;61365;52.162;4.500;2023-03-14T13:54:59;47.22;36.59;57.43;;
72686;Laerm;61365;52.162;4.500;2023-03-14T13:57:26;47.22;37.35;57.56;;
72686;Laerm;61365;52.162;4.500;2023-03-14T14:00:06;47.17;36.44;57.34;;
72686;Laerm;61365;52.162;4.500;2023-03-14T14:02:39;47.09;37.29;57.11;;
72686;Laerm;61365;52.162;4.500;2023-03-14T14:05:06;47.45;36.98;58.11;;
72686;Laerm;61365;52.162;4.500;2023-03-14T14:07:32;47.48;35.60;59.18;;
72686;Laerm;61365;52.162;4.500;2023-03-14T14:09:59;50.72;34.21;62.18;;
72686;Laerm;61365;52.162;4.500;2023-03-14T14:15:36;47.75;37.09;58.96;;
72686;Laerm;61365;52.162;4.500;2023-03-14T14:18:12;47.00;36.83;58.08;;
72686;Laerm;61365;52.162;4.500;2023-03-14T14:20:43;47.05;36.50;56.90;;
72686;Laerm;61365;52.162;4.500;2023-03-14T14:23:21;46.98;35.96;57.76;;
72686;Laerm;61365;52.162;4.500;2023-03-14T14:25:56;46.99;36.31;57.25;;
72686;Laerm;61365;52.162;4.500;2023-03-14T14:28:32;47.15;37.19;56.64;;
72686;Laerm;61365;52.162;4.500;2023-03-14T14:31:21;47.16;36.14;59.42;;
72686;Laerm;61365;52.162;4.500;2023-03-14T14:34:01;47.26;36.50;57.30;;
72686;Laerm;61365;52.162;4.500;2023-03-14T14:36:41;47.22;36.39;56.87;;
72686;Laerm;61365;52.162;4.500;2023-03-14T14:39:24;47.27;36.47;59.05;;